Time;durP1;ratioP1;P1;durP2;ratioP2;P2;SDS_P1;SDS_P2;PMS_P1;PMS_P2;Temp;Humidity;BMP_temperature;BMP_pressure;BME280_temperature;BME280_humidity;BME280_pressure;Samples;Min_cycle;Max_cycle;Signal;HPM_P1;HPM_P2
2023/07/27 00:00:41;;;;;;;4.93;3.58;;;14.70;99.90;;;;;;5029416;28;20033;-49
2023/07/27 00:03:07;;;;;;;3.55;2.67;;;14.70;99.90;;;;;;5029525;28;20033;-49
2023/07/27 00:05:32;;;;;;;4.03;3.42;;;14.70;99.90;;;;;;5029330;28;20112;-48
2023/07/27 00:07:58;;;;;;;6.47;3.85;;;14.70;99.90;;;;;;5029234;28;20045;-48
2023/07/27 00:10:24;;;;;;;5.20;3.40;;;14.70;99.90;;;;;;5028939;28;20049;-49
2023/07/27 00:12:50;;;;;;;3.80;3.42;;;14.70;99.90;;;;;;5029154;28;20041;-48
2023/07/27 00:15:16;;;;;;;5.63;3.83;;;14.70;99.90;;;;;;5029371;28;20403;-52
2023/07/27 00:17:42;;;;;;;4.47;3.53;;;14.60;99.90;;;;;;5028204;28;20060;-48
2023/07/27 00:20:08;;;;;;;3.72;3.17;;;14.70;99.90;;;;;;5029256;28;20045;-48
2023/07/27 00:22:33;;;;;;;4.97;4.13;;;14.70;99.90;;;;;;5029094;28;20037;-49
2023/07/27 00:24:59;;;;;;;9.77;3.08;;;14.60;99.90;;;;;;5028809;28;20029;-51
2023/07/27 00:27:24;;;;;;;3.35;2.90;;;14.70;99.90;;;;;;5028999;28;20095;-49
2023/07/27 00:29:50;;;;;;;5.80;3.88;;;14.70;99.90;;;;;;5029330;28;20410;-48
2023/07/27 00:32:16;;;;;;;4.47;3.90;;;14.70;99.90;;;;;;5028952;28;20037;-48
2023/07/27 00:34:41;;;;;;;9.75;3.97;;;14.70;99.90;;;;;;5029119;28;20474;-51
2023/07/27 00:37:07;;;;;;;4.90;3.38;;;14.70;99.90;;;;;;5029230;28;20091;-52
2023/07/27 00:39:34;;;;;;;4.63;4.18;;;14.70;99.90;;;;;;5028506;28;20044;-48
2023/07/27 00:41:59;;;;;;;5.10;3.63;;;14.70;99.90;;;;;;5028950;28;20048;-54
2023/07/27 00:44:25;;;;;;;3.80;3.25;;;14.70;99.90;;;;;;5029301;28;20033;-48
2023/07/27 00:46:51;;;;;;;7.72;3.78;;;14.60;99.90;;;;;;5028594;28;20041;-49
2023/07/27 00:49:18;;;;;;;6.28;4.00;;;14.60;99.90;;;;;;5026607;28;20065;-49
2023/07/27 00:51:45;;;;;;;7.78;3.67;;;14.60;99.90;;;;;;5028759;28;20041;-51
2023/07/27 00:54:11;;;;;;;5.38;3.55;;;14.60;99.90;;;;;;5027152;28;20046;-49
2023/07/27 00:56:38;;;;;;;4.75;3.33;;;14.70;99.90;;;;;;5028502;28;20048;-48
2023/07/27 00:59:04;;;;;;;5.10;3.90;;;14.70;99.90;;;;;;5028845;28;20044;-50
2023/07/27 01:01:30;;;;;;;7.00;3.55;;;14.60;99.90;;;;;;5028614;28;20044;-51
2023/07/27 01:03:57;;;;;;;4.75;3.72;;;14.60;99.90;;;;;;5028857;28;20037;-49
2023/07/27 01:06:23;;;;;;;;;;;14.60;99.90;;;;;;5028874;28;20041;-51
2023/07/27 01:08:49;;;;;;;5.70;3.33;;;14.70;99.90;;;;;;5027737;28;20333;-53
2023/07/27 01:11:26;;;;;;;6.82;3.95;;;14.70;99.90;;;;;;5028712;28;20067;-49
2023/07/27 01:14:08;;;;;;;5.88;3.83;;;14.70;99.90;;;;;;5029047;28;20052;-48
2023/07/27 01:16:53;;;;;;;4.20;3.15;;;14.70;99.90;;;;;;5028543;28;20061;-49
2023/07/27 01:19:21;;;;;;;4.38;3.72;;;14.70;99.90;;;;;;5028285;28;20409;-48
2023/07/27 01:21:56;;;;;;;5.07;3.60;;;14.70;99.90;;;;;;5028605;28;20042;-49
2023/07/27 01:25:06;;;;;;;6.72;4.47;;;14.70;99.90;;;;;;5028722;28;20084;-50
2023/07/27 01:27:50;;;;;;;6.97;3.88;;;14.70;99.90;;;;;;5027588;28;20092;-51
2023/07/27 01:30:18;;;;;;;2.65;2.45;;;14.70;99.90;;;;;;5030548;28;20033;-51
2023/07/27 01:32:49;;;;;;;4.25;3.58;;;14.70;99.90;;;;;;5032359;28;20335;-50
2023/07/27 01:35:16;;;;;;;4.95;3.92;;;14.60;99.90;;;;;;5032552;28;20445;-49
2023/07/27 01:37:44;;;;;;;5.68;4.00;;;14.50;99.90;;;;;;5031595;28;20415;-53
2023/07/27 01:40:13;;;;;;;3.80;3.38;;;14.40;99.90;;;;;;5031951;28;20049;-53
2023/07/27 01:42:40;;;;;;;8.77;4.30;;;14.30;99.90;;;;;;5032072;28;20052;-49
2023/07/27 01:45:07;;;;;;;4.88;3.70;;;14.20;99.90;;;;;;5032269;28;20457;-49
2023/07/27 01:47:33;;;;;;;8.70;4.55;;;14.20;99.90;;;;;;5031821;28;20040;-53
2023/07/27 01:49:59;;;;;;;7.40;4.18;;;14.20;99.90;;;;;;5032093;28;20079;-53
2023/07/27 01:52:26;;;;;;;5.90;4.80;;;14.00;99.90;;;;;;5031267;28;20045;-50
2023/07/27 01:54:55;;;;;;;5.82;4.28;;;14.00;99.90;;;;;;5029221;28;20057;-48
2023/07/27 01:57:21;;;;;;;5.47;4.97;;;14.10;99.90;;;;;;5031542;28;20041;-51
2023/07/27 01:59:47;;;;;;;9.98;5.80;;;14.10;99.90;;;;;;5031971;28;20095;-48
2023/07/27 02:02:13;;;;;;;;;;;14.10;99.90;;;;;;5032200;28;20037;-51
2023/07/27 02:04:39;;;;;;;8.15;5.72;;;14.10;99.90;;;;;;5031671;28;19917;-51
2023/07/27 02:07:05;;;;;;;8.13;5.20;;;14.10;99.90;;;;;;5030914;28;20136;-51
2023/07/27 02:09:30;;;;;;;7.78;5.28;;;14.10;99.90;;;;;;5031605;28;20048;-48
2023/07/27 02:12:04;;;;;;;9.18;5.85;;;14.10;99.90;;;;;;5031835;28;20037;-51
2023/07/27 02:14:43;;;;;;;9.00;5.82;;;14.10;99.90;;;;;;5031652;28;20045;-52
2023/07/27 02:17:16;;;;;;;8.52;5.60;;;14.10;99.90;;;;;;5031000;28;20387;-49
2023/07/27 02:19:44;;;;;;;8.98;5.78;;;14.10;99.90;;;;;;5031086;28;20112;-48
2023/07/27 02:22:11;;;;;;;7.88;6.15;;;14.10;99.90;;;;;;5031612;28;20054;-48
2023/07/27 02:24:37;;;;;;;9.45;5.45;;;14.10;99.90;;;;;;5031539;28;20026;-48
2023/07/27 02:27:04;;;;;;;7.35;5.78;;;14.10;99.90;;;;;;5030643;28;20595;-49
2023/07/27 02:29:29;;;;;;;6.20;4.78;;;14.10;99.90;;;;;;5031465;28;20034;-53
2023/07/27 02:31:55;;;;;;;7.63;5.63;;;14.10;99.90;;;;;;5030952;28;20037;-50
2023/07/27 02:34:20;;;;;;;7.85;5.57;;;14.10;99.90;;;;;;5031522;28;20480;-48
2023/07/27 02:36:46;;;;;;;7.45;5.43;;;14.10;99.90;;;;;;5030821;28;20037;-49
2023/07/27 02:39:11;;;;;;;10.10;6.40;;;14.20;99.90;;;;;;5031084;28;20495;-48
2023/07/27 02:41:37;;;;;;;11.68;5.20;;;14.20;99.90;;;;;;5029044;28;20041;-52
2023/07/27 02:44:03;;;;;;;6.43;5.57;;;14.20;99.90;;;;;;5030398;28;20036;-48
2023/07/27 02:46:28;;;;;;;8.30;6.32;;;14.20;99.90;;;;;;5031088;28;20560;-49
2023/07/27 02:48:55;;;;;;;7.75;5.95;;;14.20;99.90;;;;;;5030610;28;20056;-49
2023/07/27 02:51:21;;;;;;;6.50;5.50;;;14.20;99.90;;;;;;5031306;28;20037;-48
2023/07/27 02:53:46;;;;;;;9.88;6.32;;;14.30;99.90;;;;;;5030861;28;20605;-49
2023/07/27 02:56:12;;;;;;;10.95;6.30;;;14.30;99.90;;;;;;5030816;28;20045;-49
2023/07/27 02:58:38;;;;;;;7.55;5.68;;;14.30;99.90;;;;;;5028263;28;20041;-51
2023/07/27 03:01:03;;;;;;;7.30;6.25;;;14.30;99.90;;;;;;5029339;28;20046;-51
2023/07/27 03:03:29;;;;;;;8.15;6.15;;;14.30;99.90;;;;;;5028405;28;20041;-49
2023/07/27 03:06:02;;;;;;;8.35;6.45;;;14.30;99.90;;;;;;5030587;28;20521;-50
2023/07/27 03:08:29;;;;;;;10.80;6.00;;;14.30;99.90;;;;;;5027609;28;20041;-48
2023/07/27 03:10:55;;;;;;;;;;;14.30;99.90;;;;;;5031183;28;20042;-48
2023/07/27 03:13:21;;;;;;;12.43;7.15;;;14.30;99.90;;;;;;5030694;28;20004;-49
2023/07/27 03:15:46;;;;;;;17.05;7.82;;;14.30;99.90;;;;;;5030097;28;20038;-49
2023/07/27 03:18:12;;;;;;;13.60;7.10;;;14.30;99.90;;;;;;5030092;28;20046;-50
2023/07/27 03:20:40;;;;;;;11.82;7.28;;;14.30;99.90;;;;;;5030334;28;20045;-52
2023/07/27 03:23:07;;;;;;;9.43;7.28;;;14.30;99.90;;;;;;5027885;28;20044;-49
2023/07/27 03:25:34;;;;;;;10.63;7.50;;;14.30;99.90;;;;;;5030298;28;20445;-49
2023/07/27 03:28:01;;;;;;;8.30;7.28;;;14.20;99.90;;;;;;5029850;28;20091;-49
2023/07/27 03:30:26;;;;;;;10.77;7.32;;;14.20;99.90;;;;;;5029775;28;20041;-49
2023/07/27 03:32:52;;;;;;;9.40;7.85;;;14.20;99.90;;;;;;5029805;28;20470;-51
2023/07/27 03:35:18;;;;;;;9.30;7.22;;;14.20;99.90;;;;;;5030158;28;20041;-51
2023/07/27 03:37:43;;;;;;;9.82;7.82;;;14.20;99.90;;;;;;5029576;28;20067;-48
2023/07/27 03:40:09;;;;;;;9.15;7.85;;;14.20;99.90;;;;;;5030014;28;20029;-48
2023/07/27 03:42:35;;;;;;;10.98;7.88;;;14.10;99.90;;;;;;5029890;28;20032;-48
2023/07/27 03:45:00;;;;;;;12.05;8.20;;;14.10;99.90;;;;;;5029737;28;20116;-51
2023/07/27 03:47:26;;;;;;;11.02;7.65;;;14.00;99.90;;;;;;5030062;28;20041;-48
2023/07/27 03:49:51;;;;;;;10.65;9.32;;;14.00;99.90;;;;;;5029801;28;20052;-49
2023/07/27 03:52:17;;;;;;;12.43;8.57;;;14.00;99.90;;;;;;5029830;28;20037;-49
2023/07/27 03:54:42;;;;;;;13.73;8.88;;;14.00;99.90;;;;;;5029800;28;20038;-52
2023/07/27 03:57:08;;;;;;;11.45;8.18;;;13.90;99.90;;;;;;5029359;28;20530;-48
2023/07/27 03:59:34;;;;;;;11.52;8.10;;;13.90;99.90;;;;;;5029181;28;20030;-49
2023/07/27 04:01:59;;;;;;;11.15;8.13;;;13.90;99.90;;;;;;5029958;28;20473;-51
2023/07/27 04:04:25;;;;;;;9.30;8.32;;;13.90;99.90;;;;;;5029524;28;20045;-53
2023/07/27 04:06:51;;;;;;;10.93;7.55;;;13.90;99.90;;;;;;5029252;28;20108;-48
2023/07/27 04:09:16;;;;;;;10.25;8.73;;;13.90;99.90;;;;;;5029326;28;20251;-48
2023/07/27 04:11:42;;;;;;;11.80;8.90;;;13.90;99.90;;;;;;5029108;28;20080;-49
2023/07/27 04:14:07;;;;;;;11.27;9.13;;;13.90;99.90;;;;;;5028651;28;20041;-51
2023/07/27 04:16:33;;;;;;;10.52;7.70;;;13.80;99.90;;;;;;5029249;28;20044;-50
2023/07/27 04:18:59;;;;;;;10.65;7.63;;;13.80;99.90;;;;;;5029276;28;20533;-48
2023/07/27 04:21:24;;;;;;;11.60;7.15;;;13.80;99.90;;;;;;5028981;28;20069;-50
2023/07/27 04:23:50;;;;;;;13.13;8.73;;;13.80;99.90;;;;;;5029054;28;20048;-48
2023/07/27 04:26:15;;;;;;;11.50;8.77;;;13.80;99.90;;;;;;5029666;28;20026;-48
2023/07/27 04:28:41;;;;;;;8.48;7.35;;;13.80;99.90;;;;;;5028406;28;20034;-49
2023/07/27 04:31:07;;;;;;;10.45;7.18;;;13.80;99.90;;;;;;5029500;28;20475;-49
2023/07/27 04:33:33;;;;;;;12.30;7.75;;;13.90;99.90;;;;;;5029534;28;20056;-48
2023/07/27 04:36:00;;;;;;;12.35;8.10;;;13.90;99.90;;;;;;5026408;28;20079;-50
2023/07/27 04:38:25;;;;;;;;;;;13.90;99.90;;;;;;5029196;28;20037;-51
2023/07/27 04:40:51;;;;;;;12.18;8.30;;;13.90;99.90;;;;;;5028853;28;19978;-48
2023/07/27 04:43:17;;;;;;;12.27;8.90;;;13.90;99.90;;;;;;5028771;28;20109;-48
2023/07/27 04:45:43;;;;;;;14.20;8.52;;;13.80;99.90;;;;;;5027933;28;20656;-51
2023/07/27 04:48:09;;;;;;;11.07;8.55;;;13.90;99.90;;;;;;5028886;28;20041;-49
2023/07/27 04:50:35;;;;;;;15.23;9.55;;;13.90;99.90;;;;;;5029047;28;20033;-48
2023/07/27 04:53:04;;;;;;;13.52;9.25;;;13.90;99.90;;;;;;5029498;28;20068;-49
2023/07/27 04:55:30;;;;;;;13.60;9.82;;;13.90;99.90;;;;;;5029002;28;20037;-52
2023/07/27 04:57:55;;;;;;;10.10;9.00;;;13.90;99.90;;;;;;5028015;28;20136;-49
2023/07/27 05:00:21;;;;;;;12.15;9.80;;;13.90;99.90;;;;;;5029139;28;20052;-48
2023/07/27 05:02:46;;;;;;;13.77;9.98;;;13.90;99.90;;;;;;5028644;28;20367;-49
2023/07/27 05:05:12;;;;;;;12.88;9.13;;;13.90;99.90;;;;;;5028327;28;20092;-52
2023/07/27 05:07:37;;;;;;;13.15;8.63;;;14.00;99.90;;;;;;5028356;28;20042;-52
2023/07/27 05:10:03;;;;;;;11.25;9.18;;;14.00;99.90;;;;;;5029182;28;20041;-48
2023/07/27 05:12:31;;;;;;;14.35;9.50;;;14.00;99.90;;;;;;5028548;28;20123;-48
2023/07/27 05:14:58;;;;;;;13.57;10.23;;;14.00;99.90;;;;;;5027358;28;20075;-50
2023/07/27 05:17:23;;;;;;;12.85;10.15;;;14.00;99.90;;;;;;5025943;28;20047;-49
2023/07/27 05:19:49;;;;;;;16.23;11.27;;;14.00;99.90;;;;;;5028170;28;20410;-50
2023/07/27 05:22:14;;;;;;;14.80;11.80;;;14.00;99.90;;;;;;5028283;28;20029;-49
2023/07/27 05:24:40;;;;;;;16.95;11.63;;;14.00;99.90;;;;;;5028428;28;20475;-51
2023/07/27 05:27:06;;;;;;;13.05;10.65;;;14.00;99.90;;;;;;5027517;28;20030;-49
2023/07/27 05:29:31;;;;;;;17.17;12.57;;;14.00;99.90;;;;;;5028237;28;20034;-50
2023/07/27 05:31:57;;;;;;;17.65;12.88;;;14.10;99.90;;;;;;5028088;28;20091;-49
2023/07/27 05:34:23;;;;;;;20.90;13.55;;;14.10;99.90;;;;;;5028174;28;20537;-48
2023/07/27 05:36:49;;;;;;;17.77;13.48;;;14.10;99.90;;;;;;5027987;28;20037;-49
2023/07/27 05:39:14;;;;;;;25.75;14.02;;;14.10;99.90;;;;;;5028198;28;20125;-50
2023/07/27 05:41:40;;;;;;;21.23;14.50;;;14.10;99.90;;;;;;5027909;28;20076;-50
2023/07/27 05:44:06;;;;;;;23.65;14.82;;;14.10;99.90;;;;;;5028459;28;20297;-50
2023/07/27 05:46:31;;;;;;;23.52;15.02;;;14.10;99.90;;;;;;5028033;28;20485;-48
2023/07/27 05:48:57;;;;;;;21.73;15.00;;;14.10;99.90;;;;;;5027952;28;20045;-49
2023/07/27 05:51:22;;;;;;;26.85;16.52;;;14.20;99.90;;;;;;5028512;28;20499;-51
2023/07/27 05:53:48;;;;;;;23.60;15.98;;;14.20;99.90;;;;;;5028466;28;20076;-48
2023/07/27 05:56:14;;;;;;;22.55;15.38;;;14.20;99.90;;;;;;5028349;28;20041;-49
2023/07/27 05:58:39;;;;;;;23.27;16.65;;;14.20;99.90;;;;;;5028190;28;20037;-50
2023/07/27 06:01:05;;;;;;;22.48;16.30;;;14.20;99.90;;;;;;5028098;28;20045;-52
2023/07/27 06:03:31;;;;;;;27.42;16.65;;;14.20;99.90;;;;;;5028289;28;20076;-52
2023/07/27 06:05:57;;;;;;;;;;;14.20;99.90;;;;;;5028418;28;20499;-50
2023/07/27 06:08:23;;;;;;;30.63;17.55;;;14.20;99.90;;;;;;5024015;28;19976;-49
2023/07/27 06:10:49;;;;;;;28.92;18.58;;;14.20;99.90;;;;;;5026163;28;20037;-51
2023/07/27 06:13:15;;;;;;;24.33;18.30;;;14.30;99.90;;;;;;5028163;28;20128;-49
2023/07/27 06:15:47;;;;;;;25.58;18.95;;;14.20;99.90;;;;;;5024694;28;20037;-49
2023/07/27 06:18:13;;;;;;;27.55;19.15;;;14.30;99.90;;;;;;5031211;28;20033;-48
2023/07/27 06:20:39;;;;;;;25.08;18.15;;;14.30;99.90;;;;;;5030404;28;20046;-52
2023/07/27 06:23:04;;;;;;;22.20;17.70;;;14.30;99.90;;;;;;5031263;28;20071;-50
2023/07/27 06:25:30;;;;;;;26.35;18.42;;;14.30;99.90;;;;;;5027256;28;20034;-48
2023/07/27 06:27:55;;;;;;;28.33;20.35;;;14.30;99.90;;;;;;5031168;28;20040;-49
2023/07/27 06:30:21;;;;;;;27.75;21.83;;;14.30;99.90;;;;;;5031437;28;20033;-51
2023/07/27 06:32:47;;;;;;;27.60;21.52;;;14.30;99.90;;;;;;5031512;28;20047;-52
2023/07/27 06:35:13;;;;;;;31.50;22.25;;;14.30;99.90;;;;;;5025130;28;20452;-50
2023/07/27 06:37:38;;;;;;;32.10;22.85;;;14.30;99.90;;;;;;5030521;28;20071;-49
2023/07/27 06:40:05;;;;;;;39.05;24.15;;;14.40;99.90;;;;;;5030514;28;20033;-48
2023/07/27 06:42:30;;;;;;;29.90;21.00;;;14.40;99.90;;;;;;5030393;28;20349;-48
2023/07/27 06:44:56;;;;;;;26.02;20.38;;;14.40;99.90;;;;;;5028772;28;20450;-49
2023/07/27 06:47:22;;;;;;;19.88;16.17;;;14.40;99.90;;;;;;5028743;28;20548;-54
2023/07/27 06:49:47;;;;;;;27.17;18.33;;;14.50;99.90;;;;;;5022007;28;20029;-54
2023/07/27 06:52:13;;;;;;;26.83;19.75;;;14.50;99.90;;;;;;5025173;28;20083;-51
2023/07/27 06:54:39;;;;;;;24.98;19.75;;;14.50;99.90;;;;;;5025709;28;20034;-48
2023/07/27 06:57:09;;;;;;;;;;;14.50;99.90;;;;;;5028870;28;20112;-49
2023/07/27 06:59:35;;;;;;;26.05;18.52;;;14.50;99.90;;;;;;5026552;28;19925;-55
2023/07/27 07:02:01;;;;;;;25.77;19.60;;;14.50;99.90;;;;;;5029024;28;20471;-48
2023/07/27 07:04:28;;;;;;;28.73;20.58;;;14.50;99.90;;;;;;5030772;28;20033;-49
2023/07/27 07:06:54;;;;;;;28.33;19.63;;;14.60;99.90;;;;;;5030009;28;20046;-53
2023/07/27 07:09:21;;;;;;;27.95;20.25;;;14.60;99.90;;;;;;5030305;28;20037;-51
2023/07/27 07:11:48;;;;;;;25.20;18.45;;;14.60;99.90;;;;;;5030641;28;20103;-49
2023/07/27 07:14:14;;;;;;;22.48;18.65;;;14.70;99.90;;;;;;5028069;28;20041;-48
2023/07/27 07:16:39;;;;;;;25.95;18.33;;;14.70;99.90;;;;;;5030081;28;20487;-48
2023/07/27 07:19:05;;;;;;;24.17;16.98;;;14.70;99.90;;;;;;5030338;28;20037;-48
2023/07/27 07:21:31;;;;;;;23.20;17.35;;;14.70;99.90;;;;;;5030088;28;20042;-53
2023/07/27 07:23:56;;;;;;;19.73;15.55;;;14.70;99.90;;;;;;5029227;28;20486;-49
2023/07/27 07:26:22;;;;;;;21.65;16.42;;;14.70;99.90;;;;;;5027932;28;20029;-55
2023/07/27 07:28:47;;;;;;;16.95;15.15;;;14.80;99.90;;;;;;5029483;28;20041;-48
2023/07/27 07:31:13;;;;;;;16.77;14.55;;;14.80;99.90;;;;;;5030480;28;20034;-52
2023/07/27 07:33:39;;;;;;;17.17;14.73;;;14.80;99.90;;;;;;5029931;28;20486;-52
2023/07/27 07:36:04;;;;;;;20.85;16.30;;;14.80;99.90;;;;;;5024712;28;20041;-50
2023/07/27 07:38:30;;;;;;;16.67;14.35;;;14.80;99.90;;;;;;5026882;28;20124;-52
2023/07/27 07:40:56;;;;;;;16.83;14.35;;;14.80;99.90;;;;;;5028084;28;20526;-51
2023/07/27 07:43:21;;;;;;;19.75;16.63;;;14.80;99.90;;;;;;5027401;28;20399;-48
2023/07/27 07:45:47;;;;;;;18.08;16.30;;;14.80;99.90;;;;;;5029388;28;20041;-48
2023/07/27 07:48:12;;;;;;;19.52;16.77;;;14.80;99.90;;;;;;5029052;28;20112;-52
2023/07/27 07:50:38;;;;;;;21.80;19.23;;;14.80;99.90;;;;;;5029226;28;20045;-55
2023/07/27 07:53:07;;;;;;;22.38;19.73;;;14.80;99.90;;;;;;5027428;28;20073;-49
2023/07/27 07:55:36;;;;;;;22.13;19.33;;;14.80;99.90;;;;;;5029694;28;20151;-52
2023/07/27 07:58:03;;;;;;;21.10;19.00;;;14.80;99.90;;;;;;5027412;28;20041;-49
2023/07/27 08:00:28;;;;;;;22.08;19.80;;;14.80;99.90;;;;;;5029781;28;20340;-52
2023/07/27 08:02:54;;;;;;;18.75;17.00;;;14.80;99.90;;;;;;5027606;28;20455;-48
2023/07/27 08:05:20;;;;;;;21.00;18.88;;;14.80;99.90;;;;;;5028795;28;20116;-51
2023/07/27 08:07:45;;;;;;;19.27;17.58;;;14.80;99.90;;;;;;5027767;28;20028;-49
2023/07/27 08:10:11;;;;;;;19.70;16.95;;;14.80;99.90;;;;;;5022877;28;20124;-51
2023/07/27 08:12:37;;;;;;;;;;;14.80;99.90;;;;;;5028430;28;20071;-49
2023/07/27 08:15:03;;;;;;;17.67;16.15;;;14.80;99.90;;;;;;5022082;28;20142;-51
2023/07/27 08:17:29;;;;;;;16.90;15.38;;;14.80;99.90;;;;;;5024320;28;20037;-52
2023/07/27 08:19:55;;;;;;;16.88;15.27;;;14.80;99.90;;;;;;5025604;28;20049;-53
2023/07/27 08:22:21;;;;;;;16.58;14.38;;;14.80;99.90;;;;;;5028185;28;20724;-52
2023/07/27 08:24:47;;;;;;;14.73;13.50;;;14.80;99.90;;;;;;5029195;28;20471;-50
2023/07/27 08:27:13;;;;;;;15.73;14.15;;;14.80;99.90;;;;;;5028650;28;20033;-50
2023/07/27 08:29:39;;;;;;;13.60;12.27;;;14.90;99.90;;;;;;5027253;28;20026;-50
2023/07/27 08:32:05;;;;;;;8.82;8.02;;;14.90;99.90;;;;;;5022706;28;20874;-49
2023/07/27 08:34:31;;;;;;;10.45;9.52;;;14.90;99.90;;;;;;5028733;28;20544;-49
2023/07/27 08:36:56;;;;;;;9.77;9.07;;;14.90;99.90;;;;;;5028131;28;20033;-48
2023/07/27 08:39:22;;;;;;;11.13;10.02;;;15.00;99.90;;;;;;5027799;28;20080;-50
2023/07/27 08:41:48;;;;;;;12.23;10.88;;;15.00;99.90;;;;;;5017749;28;20359;-54
2023/07/27 08:44:14;;;;;;;13.05;11.85;;;15.10;99.90;;;;;;5023959;28;20565;-50
2023/07/27 08:46:42;;;;;;;;;;;15.10;99.90;;;;;;5016730;28;20068;-49
2023/07/27 08:49:12;;;;;;;9.63;8.65;;;15.10;99.90;;;;;;5025202;28;19925;-49
2023/07/27 08:51:39;;;;;;;10.43;9.52;;;15.20;99.90;;;;;;5024860;28;20408;-56
2023/07/27 08:54:05;;;;;;;10.23;9.38;;;15.20;99.90;;;;;;5028731;28;20441;-49
2023/07/27 08:56:31;;;;;;;9.52;8.70;;;15.20;99.90;;;;;;5022367;28;20037;-48
2023/07/27 08:58:57;;;;;;;9.27;8.40;;;15.20;99.90;;;;;;5027987;28;20038;-49
2023/07/27 09:01:23;;;;;;;8.50;7.90;;;15.20;99.90;;;;;;5025859;28;20037;-48
2023/07/27 09:03:48;;;;;;;6.93;6.43;;;15.30;99.90;;;;;;5022845;28;20044;-49
2023/07/27 09:06:14;;;;;;;7.93;7.25;;;15.30;99.90;;;;;;5026978;28;20037;-50
2023/07/27 09:08:40;;;;;;;6.13;5.72;;;15.30;99.90;;;;;;5028295;28;20489;-52
2023/07/27 09:11:10;;;;;;;7.03;6.43;;;15.40;99.90;;;;;;5028759;28;20284;-52
2023/07/27 09:13:37;;;;;;;6.55;5.95;;;15.40;99.90;;;;;;5026570;28;20120;-49
2023/07/27 09:16:03;;;;;;;;;;;15.40;99.90;;;;;;5027690;28;20037;-53
2023/07/27 09:18:34;;;;;;;5.45;5.05;;;15.50;99.90;;;;;;5024574;28;20314;-51
2023/07/27 09:21:08;;;;;;;5.80;5.40;;;15.50;99.90;;;;;;5028110;28;20046;-50
2023/07/27 09:23:35;;;;;;;5.20;4.90;;;15.50;99.90;;;;;;5028432;28;20042;-53
2023/07/27 09:26:00;;;;;;;5.47;5.07;;;15.60;99.90;;;;;;5028009;28;20046;-52
2023/07/27 09:28:28;;;;;;;5.07;4.78;;;15.60;99.90;;;;;;5028011;28;20526;-52
2023/07/27 09:31:01;;;;;;;5.63;5.28;;;15.70;99.90;;;;;;5027260;28;20045;-52
2023/07/27 09:33:26;;;;;;;5.07;4.78;;;15.80;99.90;;;;;;5028125;28;20478;-50
2023/07/27 09:35:53;;;;;;;3.28;3.17;;;15.80;99.90;;;;;;5027853;28;20091;-53
2023/07/27 09:38:28;;;;;;;3.17;2.78;;;15.90;99.90;;;;;;5027869;28;20430;-50
2023/07/27 09:40:54;;;;;;;3.08;2.92;;;15.90;99.90;;;;;;5027735;28;20040;-52
2023/07/27 09:43:26;;;;;;;3.65;3.45;;;15.90;99.90;;;;;;5027366;28;20033;-53
2023/07/27 09:45:58;;;;;;;3.60;3.30;;;15.90;99.90;;;;;;5028083;28;20033;-50
2023/07/27 09:48:25;;;;;;;4.43;4.13;;;15.90;99.90;;;;;;5020139;28;20041;-54
2023/07/27 09:50:53;;;;;;;4.22;3.92;;;15.90;99.90;;;;;;5030062;28;20422;-50
2023/07/27 09:53:21;;;;;;;4.47;4.18;;;16.00;99.90;;;;;;5027009;28;20041;-50
2023/07/27 09:55:49;;;;;;;4.65;4.25;;;16.00;99.90;;;;;;5031347;28;20115;-51
2023/07/27 09:58:15;;;;;;;3.45;3.25;;;16.10;99.90;;;;;;5032072;28;20037;-51
2023/07/27 10:00:41;;;;;;;4.72;4.43;;;16.20;99.90;;;;;;5028943;28;20045;-53
2023/07/27 10:03:07;;;;;;;3.53;3.38;;;16.20;99.90;;;;;;5028848;28;20045;-54
2023/07/27 10:05:37;;;;;;;4.72;4.32;;;16.30;99.90;;;;;;5032910;28;20487;-55
2023/07/27 10:08:04;;;;;;;4.82;4.47;;;16.30;99.90;;;;;;5032607;28;20064;-52
2023/07/27 10:10:32;;;;;;;5.82;5.45;;;16.30;99.90;;;;;;5032406;28;20033;-50
2023/07/27 10:13:03;;;;;;;4.45;4.15;;;16.40;99.90;;;;;;5032832;28;20494;-50
2023/07/27 10:15:29;;;;;;;4.40;4.20;;;16.50;99.90;;;;;;5032872;28;20029;-51
2023/07/27 10:17:57;;;;;;;4.07;3.88;;;16.50;99.90;;;;;;5031797;28;20040;-54
2023/07/27 10:20:29;;;;;;;4.90;4.60;;;16.60;99.90;;;;;;5032687;28;20108;-51
2023/07/27 10:23:26;;;;;;;4.88;4.63;;;16.70;99.90;;;;;;5031863;28;20465;-52
2023/07/27 10:25:55;;;;;;;4.32;4.03;;;16.70;99.90;;;;;;5032889;28;20260;-51
2023/07/27 10:28:43;;;;;;;4.40;4.10;;;16.80;99.90;;;;;;5032300;28;20033;-51
2023/07/27 10:31:19;;;;;;;9.23;4.13;;;16.90;99.90;;;;;;5031995;28;20092;-51
2023/07/27 10:34:01;;;;;;;4.50;4.13;;;17.00;99.90;;;;;;5031896;28;20502;-53
2023/07/27 10:36:58;;;;;;;2.53;2.42;;;17.00;99.90;;;;;;5028304;28;20398;-53
2023/07/27 10:39:27;;;;;;;3.75;1.50;;;17.00;99.90;;;;;;5023861;28;20053;-51
2023/07/27 10:42:03;;;;;;;2.13;2.03;;;17.10;99.90;;;;;;5022267;28;20235;-53
2023/07/27 10:44:47;;;;;;;4.55;1.60;;;17.10;99.90;;;;;;5026984;28;20033;-52
2023/07/27 10:47:27;;;;;;;1.60;1.50;;;17.10;99.90;;;;;;5032076;28;20033;-52
2023/07/27 10:49:54;;;;;;;1.65;1.35;;;17.00;99.90;;;;;;5032261;28;20076;-53
2023/07/27 10:52:22;;;;;;;1.70;1.60;;;17.00;99.90;;;;;;5032671;28;20049;-54
2023/07/27 10:54:49;;;;;;;1.65;1.55;;;17.00;99.90;;;;;;5032751;28;20049;-51
2023/07/27 10:57:17;;;;;;;1.65;1.55;;;17.10;99.90;;;;;;5032174;28;20045;-51
2023/07/27 10:59:48;;;;;;;1.83;1.73;;;17.00;99.90;;;;;;5032544;28;20461;-50
2023/07/27 11:02:24;;;;;;;1.70;1.55;;;17.10;99.90;;;;;;5031373;28;20053;-55
2023/07/27 11:04:51;;;;;;;;;;;17.10;99.90;;;;;;5032308;28;20048;-52
2023/07/27 11:07:29;;;;;;;3.78;1.35;;;17.10;99.90;;;;;;5029750;28;19939;-51
2023/07/27 11:09:55;;;;;;;1.70;1.60;;;17.10;99.90;;;;;;5031823;28;20051;-52
2023/07/27 11:12:21;;;;;;;2.17;1.98;;;17.10;99.90;;;;;;5032454;28;20033;-51
2023/07/27 11:14:47;;;;;;;2.33;2.22;;;17.10;99.90;;;;;;5031841;28;20041;-55
2023/07/27 11:17:12;;;;;;;2.67;2.58;;;17.10;99.90;;;;;;5031223;28;20451;-55
2023/07/27 11:19:38;;;;;;;3.17;2.97;;;17.20;99.90;;;;;;5032172;28;20125;-54
2023/07/27 11:22:04;;;;;;;3.17;2.97;;;17.30;99.90;;;;;;5031747;28;20081;-53
2023/07/27 11:24:31;;;;;;;;;;;17.30;99.90;;;;;;5032281;28;20451;-52
2023/07/27 11:26:57;;;;;;;3.88;3.58;;;17.40;99.90;;;;;;5031434;28;19917;-52
2023/07/27 11:29:22;;;;;;;3.95;3.75;;;17.50;99.90;;;;;;5031504;28;20113;-52
2023/07/27 11:31:53;;;;;;;2.55;2.45;;;17.60;99.90;;;;;;5031861;28;20049;-51
2023/07/27 11:34:22;;;;;;;3.97;3.78;;;17.60;99.90;;;;;;5031811;28;20103;-52
2023/07/27 11:36:55;;;;;;;3.05;2.92;;;17.70;99.90;;;;;;5031342;28;20411;-54
2023/07/27 11:39:21;;;;;;;3.97;3.78;;;17.80;99.90;;;;;;5031431;28;20099;-53
2023/07/27 11:41:47;;;;;;;;;;;17.80;99.90;;;;;;5031861;28;20038;-55
2023/07/27 11:44:13;;;;;;;3.95;3.63;;;17.90;99.90;;;;;;5031028;28;20003;-50
2023/07/27 11:46:42;;;;;;;4.15;3.85;;;17.90;99.90;;;;;;5031345;28;20534;-52
2023/07/27 11:49:08;;;;;;;3.90;3.60;;;18.00;99.90;;;;;;5031337;28;20029;-54
2023/07/27 11:51:34;;;;;;;;;;;18.10;99.90;;;;;;5032248;28;20042;-53
2023/07/27 11:53:59;;;;;;;4.05;3.75;;;18.10;99.90;;;;;;5031509;28;20584;-50
2023/07/27 11:56:25;;;;;;;3.72;3.53;;;18.10;99.90;;;;;;5031315;28;20041;-55
2023/07/27 11:58:50;;;;;;;4.13;3.88;;;18.20;99.90;;;;;;5030630;28;20057;-54
2023/07/27 12:01:16;;;;;;;4.75;4.32;;;18.20;99.90;;;;;;5031423;28;20349;-52
2023/07/27 12:03:42;;;;;;;;;;;18.30;99.90;;;;;;5031767;28;20064;-50
2023/07/27 12:06:08;;;;;;;2.97;2.85;;;18.40;99.90;;;;;;5031177;28;20381;-50
2023/07/27 12:08:38;;;;;;;3.00;2.90;;;18.50;99.90;;;;;;5030791;28;20495;-51
2023/07/27 12:11:04;;;;;;;2.33;2.05;;;18.50;99.90;;;;;;5030717;28;20037;-55
2023/07/27 12:13:32;;;;;;;2.30;2.20;;;18.50;99.90;;;;;;5030491;28;20406;-53
2023/07/27 12:16:00;;;;;;;2.17;2.08;;;18.50;99.90;;;;;;5031014;28;20052;-52
2023/07/27 12:18:28;;;;;;;1.88;1.77;;;18.50;99.90;;;;;;5030816;28;20116;-51
2023/07/27 12:20:55;;;;;;;2.13;2.03;;;18.50;99.90;;;;;;5030769;28;20040;-52
2023/07/27 12:23:25;;;;;;;2.28;2.10;;;18.50;99.90;;;;;;5031295;28;20529;-52
2023/07/27 12:25:54;;;;;;;1.88;1.50;;;18.50;99.90;;;;;;5030275;28;20279;-51
2023/07/27 12:28:20;;;;;;;6.38;2.03;;;18.50;99.90;;;;;;5030530;28;20268;-51
2023/07/27 12:30:45;;;;;;;2.72;2.30;;;18.50;99.90;;;;;;5030717;28;20215;-54
2023/07/27 12:33:12;;;;;;;3.53;2.42;;;18.60;99.90;;;;;;5029410;28;20065;-51
2023/07/27 12:35:38;;;;;;;3.75;3.50;;;18.60;99.90;;;;;;5030946;28;20052;-51
2023/07/27 12:38:04;;;;;;;3.80;2.88;;;18.60;99.90;;;;;;5030085;28;20083;-50
2023/07/27 12:40:30;;;;;;;3.08;2.83;;;18.60;99.90;;;;;;5029912;28;20034;-52
2023/07/27 12:42:58;;;;;;;3.63;3.42;;;18.60;99.90;;;;;;5030553;28;20069;-53